• Join FlightAware (Why Join?)
  • Login
  • US Flag 
09:45AM EDT


 

Airport Tracker/Info


-or-


 

Live Flight TrackerFlight Track Log ✈ VH-KLS ✈ 17-Jul-2013 ✈ YPKA / KTA - YOLW

Flight Track Log - Related Links

Times and Time Zones

All times are in EDT time to prevent confusion due to time zone crossing. See the VH-KLS flight status page for this flight to view local times or setup timezone preferences in your user account.

Time Position Orientation Groundspeed Altitude Reporting Facility
EDT Latitude Longitude Course Direction KTS MPH feet Rate Location/Type
03:03AM -20.7151 116.7739 238° Southwest  Level Aus ATC (Calculated)
03:04AM -20.7451 116.7223 58° Northeast  Level Aus ATC (Calculated)
03:05AM -20.7370 116.7362 238° Southwest  Level FlightAware Approximate
03:05AM -20.7752 116.6707 238° Southwest  Level Aus ATC (Calculated)
03:06AM -20.8052 116.6191 58° Northeast  Level Aus ATC (Calculated)
03:07AM -20.8037 116.6216 238° Southwest  Level FlightAware Approximate
03:07AM -20.8052 116.6191 238° Southwest  Level Aus ATC (Calculated)
03:08AM -20.8286 116.5787 238° Southwest  Level FlightAware Approximate
03:09AM -20.8521 116.5383 238° Southwest  Level FlightAware Approximate
03:10AM -20.8755 116.4979 238° Southwest  Level FlightAware Approximate
03:11AM -20.8989 116.4575 238° Southwest  Level FlightAware Approximate
03:12AM -20.9223 116.4171 238° Southwest  Level FlightAware Approximate
03:13AM -20.9457 116.3766 238° Southwest  Level FlightAware Approximate
03:14AM -20.9691 116.3362 238° Southwest  Level FlightAware Approximate
03:15AM -20.9925 116.2957 238° Southwest  Level FlightAware Approximate
03:16AM -21.0159 116.2552 238° Southwest  Level FlightAware Approximate
03:16AM -21.0446 116.2054 58° Northeast  Level Aus ATC (Calculated)
03:17AM -21.0392 116.2148 238° Southwest  Level FlightAware Approximate
03:18AM -21.0684 116.1642 238° Southwest  Level FlightAware Approximate
03:19AM -21.0917 116.1236 238° Southwest  Level FlightAware Approximate
03:20AM -21.1150 116.0831 238° Southwest  Level FlightAware Approximate
03:20AM -21.1043 116.1017 238° Southwest  Level Aus ATC (Calculated)
03:22AM -21.1452 116.0308 238° Southwest  Level FlightAware Approximate
03:23AM -21.1685 115.9902 238° Southwest  Level FlightAware Approximate
03:23AM -21.1938 115.9461 180° South  Level Aus ATC (Calculated)
03:23AM -21.1938 115.9461 238° Southwest  Level Aus ATC (Calculated)
03:25AM -21.2357 115.8730 238° Southwest  Level FlightAware Approximate
03:26AM -21.2590 115.8324 238° Southwest  Level FlightAware Approximate
03:26AM -21.2533 115.8423 238° Southwest  Level Aus ATC (Calculated)
03:27AM -21.2822 115.7918 238° Southwest  Level FlightAware Approximate
03:28AM -21.2886 115.7806 238° Southwest  Level FlightAware Approximate
03:29AM -21.3119 115.7400 238° Southwest  Level FlightAware Approximate
03:30AM -21.3351 115.6993 238° Southwest  Level FlightAware Approximate
03:31AM -21.3584 115.6587 238° Southwest  Level FlightAware Approximate
03:32AM -21.3816 115.6180 238° Southwest  Level FlightAware Approximate
03:33AM -21.4048 115.5773 239° Southwest  Level FlightAware Approximate
03:34AM -21.4280 115.5366 239° Southwest  Level FlightAware Approximate
03:35AM -21.4512 115.4959 239° Southwest  Level FlightAware Approximate
03:36AM -21.4743 115.4552 239° Southwest  Level FlightAware Approximate
03:37AM -21.4975 115.4144 239° Southwest  Level FlightAware Approximate
03:38AM -21.5207 115.3737 239° Southwest  Level FlightAware Approximate
03:39AM -21.5438 115.3329 239° Southwest  Level FlightAware Approximate
03:40AM -21.5670 115.2921 239° Southwest  Level FlightAware Approximate
03:41AM -21.5901 115.2513 239° Southwest  Level FlightAware Approximate
03:42AM -21.6132 115.2105 239° Southwest  Level FlightAware Approximate
03:43AM -21.6363 115.1697 239° Southwest  Level FlightAware Approximate
03:44AM -21.6594 115.1289 239° Southwest  Level FlightAware Approximate
03:45AM -21.6684 115.1130 239° Southwest  Level Estimated
03:46AM -21.6684 115.1130 238° Southwest  Level Estimated
03:47AM -21.6684 115.1130 238° Southwest  Level Estimated